sensor_id;sensor_type;location;lat;lon;timestamp;pressure;altitude;pressure_sealevel;temperature;humidity
30714;BME280;17465;47.934;33.430;2023-11-21T00:02:22;57458.58;;;-140.43;95.85
30714;BME280;17465;47.934;33.430;2023-11-21T00:04:52;57456.46;;;-140.43;95.63
30714;BME280;17465;47.934;33.430;2023-11-21T00:07:23;57491.41;;;-140.43;96.02
30714;BME280;17465;47.934;33.430;2023-11-21T00:09:55;57439.52;;;-140.43;95.91
30714;BME280;17465;47.934;33.430;2023-11-21T00:12:37;57492.47;;;-140.43;95.42
30714;BME280;17465;47.934;33.430;2023-11-21T00:15:12;57464.93;;;-140.43;94.87
30714;BME280;17465;47.934;33.430;2023-11-21T00:17:42;57464.93;;;-140.43;94.87
30714;BME280;17465;47.934;33.430;2023-11-21T00:20:13;57438.46;;;-140.43;95.74
30714;BME280;17465;47.934;33.430;2023-11-21T00:22:53;57438.46;;;-140.43;95.74
30714;BME280;17465;47.934;33.430;2023-11-21T00:25:19;57470.23;;;-140.43;95.80
30714;BME280;17465;47.934;33.430;2023-11-21T00:27:49;57440.57;;;-140.43;95.51
30714;BME280;17465;47.934;33.430;2023-11-21T00:30:20;57460.70;;;-140.43;95.61
30714;BME280;17465;47.934;33.430;2023-11-21T00:32:50;57460.70;;;-140.43;95.61
30714;BME280;17465;47.934;33.430;2023-11-21T00:35:21;57478.70;;;-140.43;95.85
30714;BME280;17465;47.934;33.430;2023-11-21T00:37:51;57433.16;;;-140.43;95.25
30714;BME280;17465;47.934;33.430;2023-11-21T00:40:24;57493.53;;;-140.43;96.15
30714;BME280;17465;47.934;33.430;2023-11-21T00:42:55;57493.53;;;-140.43;96.15
30714;BME280;17465;47.934;33.430;2023-11-21T00:45:25;57473.41;;;-140.43;95.52
30714;BME280;17465;47.934;33.430;2023-11-21T00:47:55;57473.41;;;-140.43;95.52
30714;BME280;17465;47.934;33.430;2023-11-21T00:50:26;57496.71;;;-140.43;94.30
30714;BME280;17465;47.934;33.430;2023-11-21T00:52:58;57496.71;;;-140.43;94.30
30714;BME280;17465;47.934;33.430;2023-11-21T00:55:28;57496.71;;;-140.43;94.38
30714;BME280;17465;47.934;33.430;2023-11-21T00:57:59;57463.87;;;-140.43;95.08
30714;BME280;17465;47.934;33.430;2023-11-21T01:00:31;57467.05;;;-140.43;94.62
30714;BME280;17465;47.934;33.430;2023-11-21T01:03:05;57467.05;;;-140.43;94.62
30714;BME280;17465;47.934;33.430;2023-11-21T01:05:36;57474.46;;;-140.43;95.61
30714;BME280;17465;47.934;33.430;2023-11-21T01:08:06;57474.46;;;-140.43;95.61
30714;BME280;17465;47.934;33.430;2023-11-21T01:10:40;57441.63;;;-140.43;95.51
30714;BME280;17465;47.934;33.430;2023-11-21T01:13:10;57476.58;;;-140.43;95.80
30714;BME280;17465;47.934;33.430;2023-11-21T01:15:41;57488.23;;;-140.43;95.73
30714;BME280;17465;47.934;33.430;2023-11-21T01:18:11;57473.41;;;-140.43;96.13
30714;BME280;17465;47.934;33.430;2023-11-21T01:20:44;57459.64;;;-140.43;95.10
30714;BME280;17465;47.934;33.430;2023-11-21T01:23:14;57479.76;;;-140.43;94.02
30714;BME280;17465;47.934;33.430;2023-11-21T01:25:46;57499.88;;;-140.43;95.32
30714;BME280;17465;47.934;33.430;2023-11-21T01:28:17;57478.70;;;-140.43;95.38
30714;BME280;17465;47.934;33.430;2023-11-21T01:30:47;57478.70;;;-140.43;95.38
30714;BME280;17465;47.934;33.430;2023-11-21T01:33:18;57469.17;;;-140.43;95.47
30714;BME280;17465;47.934;33.430;2023-11-21T01:35:49;57477.64;;;-140.43;95.02
30714;BME280;17465;47.934;33.430;2023-11-21T01:38:27;57477.64;;;-140.43;95.02
30714;BME280;17465;47.934;33.430;2023-11-21T01:40:59;57468.11;;;-140.43;95.25
30714;BME280;17465;47.934;33.430;2023-11-21T01:43:31;57491.41;;;-140.43;94.55
30714;BME280;17465;47.934;33.430;2023-11-21T01:46:01;57469.17;;;-140.43;95.05
30714;BME280;17465;47.934;33.430;2023-11-21T01:48:32;57465.99;;;-140.43;95.22
30714;BME280;17465;47.934;33.430;2023-11-21T01:51:06;57465.99;;;-140.43;95.22
30714;BME280;17465;47.934;33.430;2023-11-21T01:53:37;57452.23;;;-140.43;95.24
30714;BME280;17465;47.934;33.430;2023-11-21T01:56:11;57452.23;;;-140.43;95.24
30714;BME280;17465;47.934;33.430;2023-11-21T01:58:43;57479.76;;;-140.43;95.37
30714;BME280;17465;47.934;33.430;2023-11-21T02:01:14;57462.82;;;-140.43;95.69
30714;BME280;17465;47.934;33.430;2023-11-21T02:03:45;57471.29;;;-140.43;95.18
30714;BME280;17465;47.934;33.430;2023-11-21T02:06:15;57477.64;;;-140.43;95.15
30714;BME280;17465;47.934;33.430;2023-11-21T02:08:45;57473.41;;;-140.43;95.33
30714;BME280;17465;47.934;33.430;2023-11-21T02:11:20;57436.34;;;-140.43;96.25
30714;BME280;17465;47.934;33.430;2023-11-21T02:13:50;57443.75;;;-140.43;96.53
30714;BME280;17465;47.934;33.430;2023-11-21T02:16:22;57443.75;;;-140.43;96.53
30714;BME280;17465;47.934;33.430;2023-11-21T02:18:53;57488.23;;;-140.43;97.18
30714;BME280;17465;47.934;33.430;2023-11-21T02:21:24;57471.29;;;-140.43;95.97
30714;BME280;17465;47.934;33.430;2023-11-21T02:23:55;57481.88;;;-140.43;96.84
30714;BME280;17465;47.934;33.430;2023-11-21T02:26:26;57434.22;;;-140.43;96.55
30714;BME280;17465;47.934;33.430;2023-11-21T02:28:56;57445.87;;;-140.43;96.39
30714;BME280;17465;47.934;33.430;2023-11-21T02:31:28;57445.87;;;-140.43;96.39
30714;BME280;17465;47.934;33.430;2023-11-21T02:33:58;57464.93;;;-140.43;96.63
30714;BME280;17465;47.934;33.430;2023-11-21T02:36:29;57475.52;;;-140.43;96.17
30714;BME280;17465;47.934;33.430;2023-11-21T02:38:59;57456.46;;;-140.43;96.10
30714;BME280;17465;47.934;33.430;2023-11-21T02:41:30;57447.99;;;-140.43;95.92
30714;BME280;17465;47.934;33.430;2023-11-21T02:44:01;57462.82;;;-140.43;96.02
30714;BME280;17465;47.934;33.430;2023-11-21T02:46:35;57487.18;;;-140.43;95.55
30714;BME280;17465;47.934;33.430;2023-11-21T02:49:06;57444.81;;;-140.43;95.97
30714;BME280;17465;47.934;33.430;2023-11-21T02:51:37;57446.93;;;-140.43;95.86
30714;BME280;17465;47.934;33.430;2023-11-21T02:54:08;57446.93;;;-140.43;95.91
30714;BME280;17465;47.934;33.430;2023-11-21T02:56:39;57475.52;;;-140.43;96.16
30714;BME280;17465;47.934;33.430;2023-11-21T02:59:09;57475.52;;;-140.43;96.16
30714;BME280;17465;47.934;33.430;2023-11-21T03:01:39;57484.00;;;-140.43;96.22
30714;BME280;17465;47.934;33.430;2023-11-21T03:04:10;57461.76;;;-140.43;96.59
30714;BME280;17465;47.934;33.430;2023-11-21T03:06:40;57461.76;;;-140.43;96.59
30714;BME280;17465;47.934;33.430;2023-11-21T03:09:11;57455.40;;;-140.43;96.63
30714;BME280;17465;47.934;33.430;2023-11-21T03:11:41;57447.99;;;-140.43;95.72
30714;BME280;17465;47.934;33.430;2023-11-21T03:14:17;57459.64;;;-140.43;95.29
30714;BME280;17465;47.934;33.430;2023-11-21T03:16:43;57450.11;;;-140.43;96.25
30714;BME280;17465;47.934;33.430;2023-11-21T03:19:15;57450.11;;;-140.43;96.25
30714;BME280;17465;47.934;33.430;2023-11-21T03:21:45;57461.76;;;-140.43;95.97
30714;BME280;17465;47.934;33.430;2023-11-21T03:24:18;57459.64;;;-140.43;95.58
30714;BME280;17465;47.934;33.430;2023-11-21T03:26:50;57459.64;;;-140.43;95.58
30714;BME280;17465;47.934;33.430;2023-11-21T03:29:21;57497.77;;;-140.43;96.61
30714;BME280;17465;47.934;33.430;2023-11-21T03:31:51;57497.77;;;-140.43;96.61
30714;BME280;17465;47.934;33.430;2023-11-21T03:34:27;57489.29;;;-140.43;95.63
30714;BME280;17465;47.934;33.430;2023-11-21T03:36:58;57489.29;;;-140.43;95.63
30714;BME280;17465;47.934;33.430;2023-11-21T03:39:28;57470.23;;;-140.43;95.65
30714;BME280;17465;47.934;33.430;2023-11-21T03:41:58;57439.52;;;-140.43;96.25
30714;BME280;17465;47.934;33.430;2023-11-21T03:44:29;57454.34;;;-140.43;96.61
30714;BME280;17465;47.934;33.430;2023-11-21T03:47:00;57462.82;;;-140.43;96.80
30714;BME280;17465;47.934;33.430;2023-11-21T03:49:30;57475.52;;;-140.43;97.12
30714;BME280;17465;47.934;33.430;2023-11-21T03:52:01;57457.52;;;-140.43;96.31
30714;BME280;17465;47.934;33.430;2023-11-21T03:54:31;57434.22;;;-140.43;96.43
30714;BME280;17465;47.934;33.430;2023-11-21T03:57:01;57440.57;;;-140.43;96.45
30714;BME280;17465;47.934;33.430;2023-11-21T03:59:32;57440.57;;;-140.43;96.45
30714;BME280;17465;47.934;33.430;2023-11-21T04:02:04;57454.34;;;-140.43;96.26
30714;BME280;17465;47.934;33.430;2023-11-21T04:04:37;57472.35;;;-140.43;97.54
30714;BME280;17465;47.934;33.430;2023-11-21T04:07:08;57462.82;;;-140.43;97.49
30714;BME280;17465;47.934;33.430;2023-11-21T04:09:38;57455.40;;;-140.43;97.76
30714;BME280;17465;47.934;33.430;2023-11-21T04:12:08;57455.40;;;-140.43;97.76
30714;BME280;17465;47.934;33.430;2023-11-21T04:14:39;57467.05;;;-140.43;96.96
30714;BME280;17465;47.934;33.430;2023-11-21T04:17:09;57447.99;;;-140.43;97.07
30714;BME280;17465;47.934;33.430;2023-11-21T04:19:39;57461.76;;;-140.43;96.81
30714;BME280;17465;47.934;33.430;2023-11-21T04:22:10;57460.70;;;-140.43;96.82
30714;BME280;17465;47.934;33.430;2023-11-21T04:24:40;57462.82;;;-140.43;97.22
30714;BME280;17465;47.934;33.430;2023-11-21T04:27:11;57467.05;;;-140.43;97.32
30714;BME280;17465;47.934;33.430;2023-11-21T04:29:44;57465.99;;;-140.43;96.90
30714;BME280;17465;47.934;33.430;2023-11-21T04:32:16;57465.99;;;-140.43;96.90
30714;BME280;17465;47.934;33.430;2023-11-21T04:34:47;57446.93;;;-140.43;96.92
30714;BME280;17465;47.934;33.430;2023-11-21T04:37:18;57446.93;;;-140.43;96.92
30714;BME280;17465;47.934;33.430;2023-11-21T04:39:49;57439.52;;;-140.43;97.32
30714;BME280;17465;47.934;33.430;2023-11-21T04:42:22;57439.52;;;-140.43;97.32
30714;BME280;17465;47.934;33.430;2023-11-21T04:44:52;57437.39;;;-140.43;97.17
30714;BME280;17465;47.934;33.430;2023-11-21T04:47:23;57446.93;;;-140.43;96.68
30714;BME280;17465;47.934;33.430;2023-11-21T04:49:55;57445.87;;;-140.43;96.54
30714;BME280;17465;47.934;33.430;2023-11-21T04:52:25;57473.41;;;-140.43;96.53
30714;BME280;17465;47.934;33.430;2023-11-21T04:54:55;57473.41;;;-140.43;96.53
30714;BME280;17465;47.934;33.430;2023-11-21T04:57:25;57447.99;;;-140.43;96.89
30714;BME280;17465;47.934;33.430;2023-11-21T04:59:56;57443.75;;;-140.43;96.97
30714;BME280;17465;47.934;33.430;2023-11-21T05:02:26;57467.05;;;-140.43;97.10
30714;BME280;17465;47.934;33.430;2023-11-21T05:05:02;57467.05;;;-140.43;97.11
30714;BME280;17465;47.934;33.430;2023-11-21T05:07:33;57477.64;;;-140.43;96.87
30714;BME280;17465;47.934;33.430;2023-11-21T05:10:08;57477.64;;;-140.43;96.87
30714;BME280;17465;47.934;33.430;2023-11-21T05:12:39;57441.63;;;-140.43;96.97
30714;BME280;17465;47.934;33.430;2023-11-21T05:15:15;57452.23;;;-140.43;96.82
30714;BME280;17465;47.934;33.430;2023-11-21T05:17:46;57426.80;;;-140.43;96.30
30714;BME280;17465;47.934;33.430;2023-11-21T05:20:16;57426.80;;;-140.43;96.30
30714;BME280;17465;47.934;33.430;2023-11-21T05:22:47;57432.10;;;-140.43;96.36
30714;BME280;17465;47.934;33.430;2023-11-21T05:25:17;57471.29;;;-140.43;96.14
30714;BME280;17465;47.934;33.430;2023-11-21T05:27:48;57461.76;;;-140.43;96.29
30714;BME280;17465;47.934;33.430;2023-11-21T05:30:19;57460.70;;;-140.43;96.77
30714;BME280;17465;47.934;33.430;2023-11-21T05:32:49;57490.35;;;-140.43;97.16
30714;BME280;17465;47.934;33.430;2023-11-21T05:35:20;57446.93;;;-140.43;96.91
30714;BME280;17465;47.934;33.430;2023-11-21T05:37:50;57459.64;;;-140.43;97.41
30714;BME280;17465;47.934;33.430;2023-11-21T05:40:20;57451.16;;;-140.43;96.94
30714;BME280;17465;47.934;33.430;2023-11-21T05:42:51;57446.93;;;-140.43;95.93
30714;BME280;17465;47.934;33.430;2023-11-21T05:45:22;57447.99;;;-140.43;96.76
30714;BME280;17465;47.934;33.430;2023-11-21T05:47:52;57464.93;;;-140.43;96.33
30714;BME280;17465;47.934;33.430;2023-11-21T05:50:22;57464.93;;;-140.43;96.33
30714;BME280;17465;47.934;33.430;2023-11-21T05:52:53;57469.17;;;-140.43;96.43
30714;BME280;17465;47.934;33.430;2023-11-21T05:55:23;57469.17;;;-140.43;96.43
30714;BME280;17465;47.934;33.430;2023-11-21T05:57:54;57437.39;;;-140.43;96.07
30714;BME280;17465;47.934;33.430;2023-11-21T06:00:25;57472.35;;;-140.43;95.74
30714;BME280;17465;47.934;33.430;2023-11-21T06:02:56;57428.92;;;-140.43;95.90
30714;BME280;17465;47.934;33.430;2023-11-21T06:05:26;57439.52;;;-140.43;96.10
30714;BME280;17465;47.934;33.430;2023-11-21T06:07:57;57439.52;;;-140.43;96.10
30714;BME280;17465;47.934;33.430;2023-11-21T06:10:30;57445.87;;;-140.43;96.23
30714;BME280;17465;47.934;33.430;2023-11-21T06:13:00;57469.17;;;-140.43;96.30
30714;BME280;17465;47.934;33.430;2023-11-21T06:15:32;57429.98;;;-140.43;95.73
30714;BME280;17465;47.934;33.430;2023-11-21T06:18:02;57424.69;;;-140.43;95.17
30714;BME280;17465;47.934;33.430;2023-11-21T06:20:33;57424.69;;;-140.43;95.17
30714;BME280;17465;47.934;33.430;2023-11-21T06:23:04;57443.75;;;-140.43;95.95
30714;BME280;17465;47.934;33.430;2023-11-21T06:25:35;57441.63;;;-140.43;95.55
30714;BME280;17465;47.934;33.430;2023-11-21T06:28:06;57435.28;;;-140.43;95.68
30714;BME280;17465;47.934;33.430;2023-11-21T06:30:41;57458.58;;;-140.43;95.56
30714;BME280;17465;47.934;33.430;2023-11-21T06:33:08;57443.75;;;-140.43;95.47
30714;BME280;17465;47.934;33.430;2023-11-21T06:35:44;57447.99;;;-140.43;95.51
30714;BME280;17465;47.934;33.430;2023-11-21T06:38:12;57447.99;;;-140.43;95.51
30714;BME280;17465;47.934;33.430;2023-11-21T06:40:45;57438.46;;;-140.43;95.62
30714;BME280;17465;47.934;33.430;2023-11-21T06:43:30;57398.21;;;-140.43;95.47
30714;BME280;17465;47.934;33.430;2023-11-21T06:46:00;57463.87;;;-140.43;95.30
30714;BME280;17465;47.934;33.430;2023-11-21T06:48:31;57434.22;;;-140.43;95.28
30714;BME280;17465;47.934;33.430;2023-11-21T06:51:06;57454.34;;;-140.43;95.17
30714;BME280;17465;47.934;33.430;2023-11-21T06:53:40;57450.11;;;-140.43;95.47
30714;BME280;17465;47.934;33.430;2023-11-21T06:56:21;57441.63;;;-140.43;95.76
30714;BME280;17465;47.934;33.430;2023-11-21T06:58:52;57439.52;;;-140.43;95.35
30714;BME280;17465;47.934;33.430;2023-11-21T07:01:25;57439.52;;;-140.43;95.35
30714;BME280;17465;47.934;33.430;2023-11-21T07:03:58;57451.16;;;-140.43;95.29
30714;BME280;17465;47.934;33.430;2023-11-21T07:06:38;57433.16;;;-140.43;95.86
30714;BME280;17465;47.934;33.430;2023-11-21T07:09:10;57434.22;;;-140.43;95.89
30714;BME280;17465;47.934;33.430;2023-11-21T07:11:45;57434.22;;;-140.43;95.89
30714;BME280;17465;47.934;33.430;2023-11-21T07:14:19;57456.46;;;-140.43;94.83
30714;BME280;17465;47.934;33.430;2023-11-21T07:16:58;57456.46;;;-140.43;94.83
30714;BME280;17465;47.934;33.430;2023-11-21T07:19:32;57438.46;;;-140.43;94.22
30714;BME280;17465;47.934;33.430;2023-11-21T07:22:07;57438.46;;;-140.43;94.22
30714;BME280;17465;47.934;33.430;2023-11-21T07:24:40;57409.86;;;-140.43;92.35
30714;BME280;17465;47.934;33.430;2023-11-21T07:27:14;57409.86;;;-140.43;92.35
30714;BME280;17465;47.934;33.430;2023-11-21T07:30:05;57452.23;;;-140.43;93.82
30714;BME280;17465;47.934;33.430;2023-11-21T07:32:39;57426.80;;;-140.43;94.27
30714;BME280;17465;47.934;33.430;2023-11-21T07:35:36;57438.46;;;-140.43;94.05
30714;BME280;17465;47.934;33.430;2023-11-21T07:38:08;57441.63;;;-140.43;93.96
30714;BME280;17465;47.934;33.430;2023-11-21T07:40:39;57441.63;;;-140.43;93.96
30714;BME280;17465;47.934;33.430;2023-11-21T07:43:11;57421.51;;;-140.43;94.40
30714;BME280;17465;47.934;33.430;2023-11-21T07:45:59;57421.51;;;-140.43;94.40
30714;BME280;17465;47.934;33.430;2023-11-21T07:48:41;57454.34;;;-140.43;94.78
30714;BME280;17465;47.934;33.430;2023-11-21T07:51:16;57454.34;;;-140.43;94.78
30714;BME280;17465;47.934;33.430;2023-11-21T07:53:46;57416.21;;;-140.43;94.62
30714;BME280;17465;47.934;33.430;2023-11-21T07:56:19;57416.21;;;-140.43;94.62
30714;BME280;17465;47.934;33.430;2023-11-21T07:58:58;57423.63;;;-140.43;94.12
30714;BME280;17465;47.934;33.430;2023-11-21T08:04:05;57435.28;;;-140.43;93.50
30714;BME280;17465;47.934;33.430;2023-11-21T08:06:37;57443.75;;;-140.43;93.77
30714;BME280;17465;47.934;33.430;2023-11-21T08:09:15;57420.45;;;-140.43;93.42
30714;BME280;17465;47.934;33.430;2023-11-21T08:11:47;57413.04;;;-140.43;93.17
30714;BME280;17465;47.934;33.430;2023-11-21T08:14:21;57414.10;;;-140.43;93.17
30714;BME280;17465;47.934;33.430;2023-11-21T08:16:54;57408.80;;;-140.43;93.10
30714;BME280;17465;47.934;33.430;2023-11-21T08:19:28;57424.69;;;-140.43;93.07
30714;BME280;17465;47.934;33.430;2023-11-21T08:21:59;57424.69;;;-140.43;93.07
30714;BME280;17465;47.934;33.430;2023-11-21T08:24:40;57426.80;;;-140.43;91.95
30714;BME280;17465;47.934;33.430;2023-11-21T08:27:19;57402.45;;;-140.43;93.08
30714;BME280;17465;47.934;33.430;2023-11-21T08:29:59;57423.63;;;-140.43;93.63
30714;BME280;17465;47.934;33.430;2023-11-21T08:32:32;57423.63;;;-140.43;92.87
30714;BME280;17465;47.934;33.430;2023-11-21T08:35:31;57432.10;;;-140.43;93.28
30714;BME280;17465;47.934;33.430;2023-11-21T08:38:01;57438.46;;;-140.43;92.61
30714;BME280;17465;47.934;33.430;2023-11-21T08:40:43;57403.51;;;-140.43;93.11
30714;BME280;17465;47.934;33.430;2023-11-21T08:43:19;57446.93;;;-140.43;93.08
30714;BME280;17465;47.934;33.430;2023-11-21T08:45:56;57429.98;;;-140.43;91.86
30714;BME280;17465;47.934;33.430;2023-11-21T08:48:28;57443.75;;;-140.43;92.37
30714;BME280;17465;47.934;33.430;2023-11-21T08:51:00;57437.39;;;-140.43;92.60
30714;BME280;17465;47.934;33.430;2023-11-21T08:53:34;57423.63;;;-140.43;92.76
30714;BME280;17465;47.934;33.430;2023-11-21T08:56:07;57423.63;;;-140.43;92.76
30714;BME280;17465;47.934;33.430;2023-11-21T08:58:37;57411.98;;;-140.43;91.90
30714;BME280;17465;47.934;33.430;2023-11-21T09:04:11;57434.22;;;-140.43;91.62
30714;BME280;17465;47.934;33.430;2023-11-21T09:06:45;57419.39;;;-140.43;91.40
30714;BME280;17465;47.934;33.430;2023-11-21T09:09:29;57397.15;;;-140.43;91.04
30714;BME280;17465;47.934;33.430;2023-11-21T09:12:11;57409.86;;;-140.43;91.29
30714;BME280;17465;47.934;33.430;2023-11-21T09:15:16;57393.98;;;-140.43;91.64
30714;BME280;17465;47.934;33.430;2023-11-21T09:17:48;57439.52;;;-140.43;91.43
30714;BME280;17465;47.934;33.430;2023-11-21T09:22:55;57399.27;;;-140.43;92.21
30714;BME280;17465;47.934;33.430;2023-11-21T09:25:29;57418.33;;;-140.43;90.33
30714;BME280;17465;47.934;33.430;2023-11-21T09:28:00;57424.69;;;-140.43;90.36
30714;BME280;17465;47.934;33.430;2023-11-21T09:30:31;57424.69;;;-140.43;91.77
30714;BME280;17465;47.934;33.430;2023-11-21T09:33:02;57424.69;;;-140.43;91.77
30714;BME280;17465;47.934;33.430;2023-11-21T09:35:32;57426.80;;;-140.43;91.67
30714;BME280;17465;47.934;33.430;2023-11-21T09:38:03;57428.92;;;-140.43;92.26
30714;BME280;17465;47.934;33.430;2023-11-21T09:40:33;57413.04;;;-140.43;90.69
30714;BME280;17465;47.934;33.430;2023-11-21T09:43:28;57457.52;;;-140.43;92.59
30714;BME280;17465;47.934;33.430;2023-11-21T09:45:59;57457.52;;;-140.43;92.59
30714;BME280;17465;47.934;33.430;2023-11-21T09:48:29;57410.92;;;-140.43;94.13
30714;BME280;17465;47.934;33.430;2023-11-21T09:51:06;57415.16;;;-140.43;93.53
30714;BME280;17465;47.934;33.430;2023-11-21T09:53:34;57421.51;;;-140.43;92.82
30714;BME280;17465;47.934;33.430;2023-11-21T09:56:08;57421.51;;;-140.43;92.82
30714;BME280;17465;47.934;33.430;2023-11-21T09:58:50;57429.98;;;-140.43;92.51
30714;BME280;17465;47.934;33.430;2023-11-21T10:01:28;57436.34;;;-140.43;92.06
30714;BME280;17465;47.934;33.430;2023-11-21T10:06:42;57393.98;;;-140.43;91.66
30714;BME280;17465;47.934;33.430;2023-11-21T10:09:13;57434.22;;;-140.43;92.55
30714;BME280;17465;47.934;33.430;2023-11-21T10:11:50;57434.22;;;-140.43;93.13
30714;BME280;17465;47.934;33.430;2023-11-21T10:14:39;57434.22;;;-140.43;93.13
30714;BME280;17465;47.934;33.430;2023-11-21T10:17:13;57427.87;;;-140.43;92.78
30714;BME280;17465;47.934;33.430;2023-11-21T10:26:13;57423.63;;;-140.43;91.79
30714;BME280;17465;47.934;33.430;2023-11-21T10:29:02;57398.21;;;-140.43;93.65
30714;BME280;17465;47.934;33.430;2023-11-21T10:31:33;57422.57;;;-140.43;91.78
30714;BME280;17465;47.934;33.430;2023-11-21T10:34:20;57403.51;;;-140.43;91.47
30714;BME280;17465;47.934;33.430;2023-11-21T10:36:50;57400.33;;;-140.43;92.81
30714;BME280;17465;47.934;33.430;2023-11-21T10:39:21;57416.21;;;-140.43;92.04
30714;BME280;17465;47.934;33.430;2023-11-21T10:41:52;57418.33;;;-140.43;92.18
30714;BME280;17465;47.934;33.430;2023-11-21T10:44:22;57431.04;;;-140.43;90.89
30714;BME280;17465;47.934;33.430;2023-11-21T10:46:55;57423.63;;;-140.43;91.99
30714;BME280;17465;47.934;33.430;2023-11-21T10:49:31;57423.63;;;-140.43;91.99
30714;BME280;17465;47.934;33.430;2023-11-21T10:52:08;57409.86;;;-140.43;91.49
30714;BME280;17465;47.934;33.430;2023-11-21T10:58:11;57436.34;;;-140.43;91.44
30714;BME280;17465;47.934;33.430;2023-11-21T11:00:46;57420.45;;;-140.43;91.24
30714;BME280;17465;47.934;33.430;2023-11-21T11:03:26;57423.63;;;-140.43;92.23
30714;BME280;17465;47.934;33.430;2023-11-21T11:06:27;57396.09;;;-140.43;91.19
30714;BME280;17465;47.934;33.430;2023-11-21T11:09:17;57396.09;;;-140.43;91.19
30714;BME280;17465;47.934;33.430;2023-11-21T11:12:03;57398.21;;;-140.43;91.38
30714;BME280;17465;47.934;33.430;2023-11-21T11:14:52;57428.92;;;-140.43;92.01
30714;BME280;17465;47.934;33.430;2023-11-21T11:17:37;57420.45;;;-140.43;92.75
30714;BME280;17465;47.934;33.430;2023-11-21T11:20:14;57417.27;;;-140.43;93.16
30714;BME280;17465;47.934;33.430;2023-11-21T11:26:04;57420.45;;;-140.43;92.67
30714;BME280;17465;47.934;33.430;2023-11-21T11:28:47;57406.68;;;-140.43;92.04
30714;BME280;17465;47.934;33.430;2023-11-21T11:31:39;57429.98;;;-140.43;92.74
30714;BME280;17465;47.934;33.430;2023-11-21T11:39:40;57444.81;;;-140.43;92.15
30714;BME280;17465;47.934;33.430;2023-11-21T11:42:15;57414.10;;;-140.43;92.49
30714;BME280;17465;47.934;33.430;2023-11-21T11:44:48;57391.86;;;-140.43;92.01
30714;BME280;17465;47.934;33.430;2023-11-21T11:50:22;57433.16;;;-140.43;90.84
30714;BME280;17465;47.934;33.430;2023-11-21T11:55:44;57414.10;;;-140.43;92.00
30714;BME280;17465;47.934;33.430;2023-11-21T11:58:16;57414.10;;;-140.43;92.00
30714;BME280;17465;47.934;33.430;2023-11-21T12:00:49;57450.11;;;-140.43;93.49
30714;BME280;17465;47.934;33.430;2023-11-21T12:03:20;57425.75;;;-140.43;93.49
30714;BME280;17465;47.934;33.430;2023-11-21T12:05:51;57433.16;;;-140.43;93.35
30714;BME280;17465;47.934;33.430;2023-11-21T12:08:36;57433.16;;;-140.43;93.35
30714;BME280;17465;47.934;33.430;2023-11-21T12:11:06;57395.03;;;-140.43;92.81
30714;BME280;17465;47.934;33.430;2023-11-21T12:13:42;57422.57;;;-140.43;91.76
30714;BME280;17465;47.934;33.430;2023-11-21T12:16:16;57422.57;;;-140.43;92.69
30714;BME280;17465;47.934;33.430;2023-11-21T12:18:54;57413.04;;;-140.43;93.01
30714;BME280;17465;47.934;33.430;2023-11-21T12:21:24;57413.04;;;-140.43;93.01
30714;BME280;17465;47.934;33.430;2023-11-21T12:24:02;57418.33;;;-140.43;93.20
30714;BME280;17465;47.934;33.430;2023-11-21T12:26:34;57418.33;;;-140.43;93.20
30714;BME280;17465;47.934;33.430;2023-11-21T12:29:08;57442.69;;;-140.43;92.40
30714;BME280;17465;47.934;33.430;2023-11-21T12:31:40;57438.46;;;-140.43;92.01
30714;BME280;17465;47.934;33.430;2023-11-21T12:34:35;57420.45;;;-140.43;93.08
30714;BME280;17465;47.934;33.430;2023-11-21T12:37:25;57404.57;;;-140.43;93.83
30714;BME280;17465;47.934;33.430;2023-11-21T12:40:01;57431.04;;;-140.43;93.42
30714;BME280;17465;47.934;33.430;2023-11-21T12:42:37;57431.04;;;-140.43;93.42
30714;BME280;17465;47.934;33.430;2023-11-21T12:45:30;57441.63;;;-140.43;92.76
30714;BME280;17465;47.934;33.430;2023-11-21T12:48:04;57436.34;;;-140.43;92.31
30714;BME280;17465;47.934;33.430;2023-11-21T12:50:50;57435.28;;;-140.43;91.68
30714;BME280;17465;47.934;33.430;2023-11-21T12:53:16;57449.05;;;-140.43;92.36
30714;BME280;17465;47.934;33.430;2023-11-21T12:55:48;57411.98;;;-140.43;92.47
30714;BME280;17465;47.934;33.430;2023-11-21T12:58:27;57432.10;;;-140.43;92.33
30714;BME280;17465;47.934;33.430;2023-11-21T13:01:04;57432.10;;;-140.43;92.33
30714;BME280;17465;47.934;33.430;2023-11-21T13:03:42;57413.04;;;-140.43;92.50
30714;BME280;17465;47.934;33.430;2023-11-21T13:06:35;57418.33;;;-140.43;93.08
30714;BME280;17465;47.934;33.430;2023-11-21T13:09:09;57408.80;;;-140.43;93.05
30714;BME280;17465;47.934;33.430;2023-11-21T13:11:52;57390.80;;;-140.43;92.84
30714;BME280;17465;47.934;33.430;2023-11-21T13:14:33;57442.69;;;-140.43;92.65
30714;BME280;17465;47.934;33.430;2023-11-21T13:17:07;57447.99;;;-140.43;93.72
30714;BME280;17465;47.934;33.430;2023-11-21T13:19:37;57439.52;;;-140.43;93.76
30714;BME280;17465;47.934;33.430;2023-11-21T13:22:08;57439.52;;;-140.43;93.76
30714;BME280;17465;47.934;33.430;2023-11-21T13:24:43;57462.82;;;-140.43;93.73
30714;BME280;17465;47.934;33.430;2023-11-21T13:27:15;57444.81;;;-140.43;94.52
30714;BME280;17465;47.934;33.430;2023-11-21T13:29:45;57426.80;;;-140.43;94.97
30714;BME280;17465;47.934;33.430;2023-11-21T13:32:16;57435.28;;;-140.43;94.40
30714;BME280;17465;47.934;33.430;2023-11-21T13:34:46;57435.28;;;-140.43;94.40
30714;BME280;17465;47.934;33.430;2023-11-21T13:37:20;57441.63;;;-140.43;93.98
30714;BME280;17465;47.934;33.430;2023-11-21T13:39:51;57449.05;;;-140.43;93.72